Time;durP1;ratioP1;P1;durP2;ratioP2;P2;SDS_P1;SDS_P2;PMS_P1;PMS_P2;Temp;Humidity;BMP_temperature;BMP_pressure;BME280_temperature;BME280_humidity;BME280_pressure;Samples;Min_cycle;Max_cycle;Signal;HPM_P1;HPM_P2
2022/11/21 00:03:39;;;;;;;9.70;2.22;;;;;;;;;;8337929;28;20029;-63
2022/11/21 00:07:39;;;;;;;10.55;1.80;;;;;;;;;;8338329;28;20067;-62
2022/11/21 00:11:40;;;;;;;9.60;2.10;;;;;;;;;;8338872;28;20926;-63
2022/11/21 00:15:41;;;;;;;8.88;2.35;;;;;;;;;;8338384;28;20079;-63
2022/11/21 00:19:41;;;;;;;11.18;1.90;;;;;;;;;;8335998;28;20029;-63
2022/11/21 00:23:42;;;;;;;13.07;2.30;;;;;;;;;;8336061;28;20036;-63
2022/11/21 00:27:42;;;;;;;9.10;1.80;;;;;;;;;;8337863;28;20612;-63
2022/11/21 00:31:42;;;;;;;7.97;1.88;;;;;;;;;;8337199;28;20045;-63
2022/11/21 00:35:42;;;;;;;11.45;2.10;;;;;;;;;;8339136;28;20050;-63
2022/11/21 00:39:43;;;;;;;14.43;2.10;;;;;;;;;;8339148;28;20386;-63
2022/11/21 00:43:43;;;;;;;10.90;2.15;;;;;;;;;;8336859;28;20017;-63
2022/11/21 00:47:43;;;;;;;9.85;2.25;;;;;;;;;;8336986;28;20033;-63
2022/11/21 00:51:43;;;;;;;8.50;1.90;;;;;;;;;;8341485;28;20048;-63
2022/11/21 00:55:43;;;;;;;5.15;1.85;;;;;;;;;;8344825;28;20059;-63
2022/11/21 00:59:44;;;;;;;11.63;1.95;;;;;;;;;;8341647;28;20051;-63
2022/11/21 01:03:45;;;;;;;9.68;2.20;;;;;;;;;;8341723;28;20043;-63
2022/11/21 01:07:46;;;;;;;12.38;2.00;;;;;;;;;;8341471;28;20031;-63
2022/11/21 01:11:47;;;;;;;9.23;1.85;;;;;;;;;;8342459;28;20117;-62
2022/11/21 01:15:47;;;;;;;9.75;1.77;;;;;;;;;;8342546;28;20557;-63
2022/11/21 01:19:47;;;;;;;7.95;1.90;;;;;;;;;;8341828;28;20025;-63
2022/11/21 01:23:47;;;;;;;7.47;1.60;;;;;;;;;;8342207;28;20020;-63
2022/11/21 01:27:48;;;;;;;15.15;2.33;;;;;;;;;;8339939;28;20017;-62
2022/11/21 01:31:48;;;;;;;10.68;2.13;;;;;;;;;;8342167;28;20090;-63
2022/11/21 01:35:49;;;;;;;11.50;2.15;;;;;;;;;;8340775;28;20495;-62
2022/11/21 01:39:49;;;;;;;7.75;2.05;;;;;;;;;;8339093;28;20031;-63
2022/11/21 01:43:49;;;;;;;10.85;1.60;;;;;;;;;;8339580;28;20105;-63
2022/11/21 01:47:49;;;;;;;5.35;1.30;;;;;;;;;;8340779;28;20128;-63
2022/11/21 01:51:53;;;;;;;5.78;1.63;;;;;;;;;;8340289;28;20558;-63
2022/11/21 01:55:53;;;;;;;4.80;1.50;;;;;;;;;;8341392;28;20024;-63
2022/11/21 01:59:57;;;;;;;6.60;1.77;;;;;;;;;;8339846;28;20086;-63
2022/11/21 02:03:58;;;;;;;7.38;2.03;;;;;;;;;;8339114;28;20028;-63
2022/11/21 02:08:02;;;;;;;10.60;1.85;;;;;;;;;;8339374;28;20013;-63
2022/11/21 02:12:12;;;;;;;9.98;1.83;;;;;;;;;;8339289;28;20032;-63
2022/11/21 02:16:13;;;;;;;5.85;1.90;;;;;;;;;;8336354;28;20028;-63
2022/11/21 02:20:14;;;;;;;12.18;2.42;;;;;;;;;;8339203;28;20619;-63
2022/11/21 02:24:29;;;;;;;10.45;1.85;;;;;;;;;;8338296;28;20048;-63
2022/11/21 02:28:30;;;;;;;12.35;2.10;;;;;;;;;;8338455;28;20083;-63
2022/11/21 02:32:35;;;;;;;8.13;1.83;;;;;;;;;;8338123;28;20087;-63
2022/11/21 02:36:43;;;;;;;4.85;1.80;;;;;;;;;;8338152;28;20033;-64
2022/11/21 02:40:47;;;;;;;4.40;1.70;;;;;;;;;;8339115;28;20017;-64
2022/11/21 02:45:06;;;;;;;8.20;2.15;;;;;;;;;;8320235;28;20021;-62
2022/11/21 02:49:08;;;;;;;7.38;1.73;;;;;;;;;;8359725;28;20048;-62
2022/11/21 02:53:09;;;;;;;7.60;1.70;;;;;;;;;;8357712;28;20016;-62
2022/11/21 02:57:09;;;;;;;7.43;1.73;;;;;;;;;;8358121;28;20412;-63
2022/11/21 03:01:09;;;;;;;6.47;1.77;;;;;;;;;;8357832;28;20028;-63
2022/11/21 03:05:12;;;;;;;3.17;1.10;;;;;;;;;;8356079;28;20103;-62
2022/11/21 03:09:13;;;;;;;8.48;1.70;;;;;;;;;;8356312;28;20104;-62
2022/11/21 03:13:13;;;;;;;5.15;1.73;;;;;;;;;;8357095;28;20060;-62
2022/11/21 03:17:13;;;;;;;4.60;1.58;;;;;;;;;;8354642;28;20571;-62
2022/11/21 03:21:13;;;;;;;4.75;1.30;;;;;;;;;;8356075;28;20370;-62
2022/11/21 03:25:14;;;;;;;5.35;1.25;;;;;;;;;;8356403;28;20054;-62
2022/11/21 03:29:14;;;;;;;4.55;1.25;;;;;;;;;;8357379;28;20031;-64
2022/11/21 03:33:14;;;;;;;3.08;1.30;;;;;;;;;;8356374;28;20047;-62
2022/11/21 03:37:15;;;;;;;5.88;1.50;;;;;;;;;;8358382;28;20020;-63
2022/11/21 03:41:28;;;;;;;7.00;1.17;;;;;;;;;;8361255;28;20032;-63
2022/11/21 03:45:28;;;;;;;3.55;1.00;;;;;;;;;;8360727;28;20123;-62
2022/11/21 03:49:28;;;;;;;3.65;1.15;;;;;;;;;;8357013;28;20848;-62
2022/11/21 03:53:28;;;;;;;2.83;1.08;;;;;;;;;;8342025;28;20035;-63
2022/11/21 03:57:29;;;;;;;3.17;0.90;;;;;;;;;;8359220;28;20074;-63
2022/11/21 04:01:29;;;;;;;3.25;1.30;;;;;;;;;;8340385;28;20147;-63
2022/11/21 04:05:29;;;;;;;2.42;1.00;;;;;;;;;;8359671;28;20040;-63
2022/11/21 04:09:29;;;;;;;2.08;1.17;;;;;;;;;;8359012;28;20813;-62
2022/11/21 04:13:29;;;;;;;2.17;0.90;;;;;;;;;;8357287;28;20020;-63
2022/11/21 04:17:30;;;;;;;0.93;0.73;;;;;;;;;;8358997;28;20103;-62
2022/11/21 04:21:31;;;;;;;4.22;1.20;;;;;;;;;;8357802;28;20034;-62
2022/11/21 04:25:31;;;;;;;2.85;0.90;;;;;;;;;;8358686;28;20028;-62
2022/11/21 04:29:31;;;;;;;4.47;1.10;;;;;;;;;;8365943;28;20146;-62
2022/11/21 04:33:32;;;;;;;2.00;0.80;;;;;;;;;;8363764;28;20036;-62
2022/11/21 04:37:32;;;;;;;1.85;0.82;;;;;;;;;;8364064;28;20140;-62
2022/11/21 04:41:32;;;;;;;2.25;1.00;;;;;;;;;;8364808;28;20480;-63
2022/11/21 04:45:32;;;;;;;3.58;0.77;;;;;;;;;;8362796;28;20109;-63
2022/11/21 04:49:32;;;;;;;3.33;1.05;;;;;;;;;;8364395;28;20316;-63
2022/11/21 04:53:33;;;;;;;3.38;1.17;;;;;;;;;;8364824;28;21228;-62
2022/11/21 04:57:33;;;;;;;2.90;0.90;;;;;;;;;;8366574;28;20016;-63
2022/11/21 05:01:33;;;;;;;4.97;1.00;;;;;;;;;;8363725;28;20040;-62
2022/11/21 05:05:33;;;;;;;1.52;0.75;;;;;;;;;;8364082;28;20592;-63
2022/11/21 05:09:33;;;;;;;2.13;0.90;;;;;;;;;;8364114;28;20125;-63
2022/11/21 05:13:34;;;;;;;2.80;1.00;;;;;;;;;;8361058;28;20068;-62
2022/11/21 05:17:34;;;;;;;5.43;1.45;;;;;;;;;;8360418;28;20133;-62
2022/11/21 05:21:34;;;;;;;4.60;1.10;;;;;;;;;;8361519;28;20086;-63
2022/11/21 05:25:34;;;;;;;2.90;1.00;;;;;;;;;;8360859;28;20033;-62
2022/11/21 05:29:34;;;;;;;4.35;1.25;;;;;;;;;;8361958;28;20064;-63
2022/11/21 05:33:35;;;;;;;4.40;1.40;;;;;;;;;;8361557;28;20046;-63
2022/11/21 05:37:35;;;;;;;3.28;1.08;;;;;;;;;;8361031;28;20277;-63
2022/11/21 05:41:35;;;;;;;2.95;1.20;;;;;;;;;;8361766;28;20937;-63
2022/11/21 05:45:35;;;;;;;4.38;1.30;;;;;;;;;;8356186;28;20134;-63
2022/11/21 05:49:35;;;;;;;3.60;1.20;;;;;;;;;;8356530;28;20074;-63
2022/11/21 05:53:36;;;;;;;2.55;1.13;;;;;;;;;;8362947;28;20063;-63
2022/11/21 05:57:36;;;;;;;3.53;1.40;;;;;;;;;;8360898;28;20024;-63
2022/11/21 06:05:59;;;;;;;3.75;1.38;;;;;;;;;;8359708;28;20051;-63
2022/11/21 06:09:59;;;;;;;3.22;1.15;;;;;;;;;;8360467;28;20111;-63
2022/11/21 06:13:59;;;;;;;5.63;1.42;;;;;;;;;;8358139;28;20064;-62
2022/11/21 06:18:00;;;;;;;5.70;1.20;;;;;;;;;;8361293;28;20032;-63
2022/11/21 06:22:00;;;;;;;4.78;1.55;;;;;;;;;;8360281;28;20024;-63
2022/11/21 06:26:02;;;;;;;5.72;1.48;;;;;;;;;;8359712;28;20028;-63
2022/11/21 06:30:03;;;;;;;4.43;1.15;;;;;;;;;;8359906;28;20055;-63
2022/11/21 06:34:03;;;;;;;4.35;1.27;;;;;;;;;;8359855;28;20039;-63
2022/11/21 06:38:03;;;;;;;4.00;1.50;;;;;;;;;;8362609;28;20027;-63
2022/11/21 06:42:03;;;;;;;3.38;1.48;;;;;;;;;;8359629;28;20337;-62
2022/11/21 06:46:03;;;;;;;2.47;1.40;;;;;;;;;;8359535;28;20032;-63
2022/11/21 06:50:04;;;;;;;6.47;1.58;;;;;;;;;;8359246;28;20024;-62
2022/11/21 06:54:04;;;;;;;4.38;1.30;;;;;;;;;;8364463;28;20028;-63
2022/11/21 06:58:04;;;;;;;3.03;1.50;;;;;;;;;;8359634;28;20017;-63
2022/11/21 07:02:05;;;;;;;2.05;1.08;;;;;;;;;;8358766;28;20032;-62
2022/11/21 07:06:05;;;;;;;2.83;1.30;;;;;;;;;;8359418;28;20042;-62
2022/11/21 07:10:06;;;;;;;2.28;1.13;;;;;;;;;;8360816;28;20017;-62
2022/11/21 07:14:06;;;;;;;6.38;2.00;;;;;;;;;;8358364;28;20292;-62
2022/11/21 07:18:06;;;;;;;4.10;1.52;;;;;;;;;;8359585;28;20115;-63
2022/11/21 07:22:07;;;;;;;3.42;1.50;;;;;;;;;;8356278;28;20028;-62
2022/11/21 07:26:08;;;;;;;4.35;1.40;;;;;;;;;;8358726;28;20383;-63
2022/11/21 07:30:09;;;;;;;5.18;1.50;;;;;;;;;;8355525;28;20791;-62
2022/11/21 07:34:09;;;;;;;6.45;1.75;;;;;;;;;;8361031;28;20051;-63
2022/11/21 07:38:09;;;;;;;6.75;1.80;;;;;;;;;;8359939;28;20532;-63
2022/11/21 07:42:10;;;;;;;3.28;1.38;;;;;;;;;;8357561;28;20305;-63
2022/11/21 07:46:10;;;;;;;5.50;1.50;;;;;;;;;;8361121;28;20199;-63
2022/11/21 07:50:10;;;;;;;3.45;1.30;;;;;;;;;;8368127;28;20032;-62
2022/11/21 07:54:11;;;;;;;6.53;1.80;;;;;;;;;;8360922;28;20021;-62
2022/11/21 07:58:12;;;;;;;7.22;1.60;;;;;;;;;;8368673;28;20013;-63
2022/11/21 08:02:22;;;;;;;5.28;1.50;;;;;;;;;;8367712;28;20036;-63
2022/11/21 08:06:22;;;;;;;7.10;1.90;;;;;;;;;;8366146;28;20611;-62
2022/11/21 08:10:22;;;;;;;6.05;1.77;;;;;;;;;;8358178;28;20024;-62
2022/11/21 08:14:23;;;;;;;6.00;1.70;;;;;;;;;;8357588;28;20136;-62
2022/11/21 08:18:23;;;;;;;6.18;1.50;;;;;;;;;;8356415;28;20059;-62
2022/11/21 08:22:23;;;;;;;6.43;1.42;;;;;;;;;;8358657;28;20499;-63
2022/11/21 08:26:23;;;;;;;4.00;1.50;;;;;;;;;;8359870;28;20930;-63
2022/11/21 08:30:24;;;;;;;2.80;1.40;;;;;;;;;;8355554;28;20309;-62
2022/11/21 08:34:24;;;;;;;3.13;1.70;;;;;;;;;;8355395;28;20303;-62
2022/11/21 08:38:24;;;;;;;2.55;1.30;;;;;;;;;;8359429;28;20074;-63
2022/11/21 08:42:24;;;;;;;4.20;1.40;;;;;;;;;;8357422;28;20082;-63
2022/11/21 08:46:26;;;;;;;8.83;1.50;;;;;;;;;;8354134;28;20274;-63
2022/11/21 08:50:27;;;;;;;6.05;1.40;;;;;;;;;;8355912;28;21148;-63
2022/11/21 08:54:27;;;;;;;5.18;1.58;;;;;;;;;;8355478;28;20046;-63
2022/11/21 08:58:27;;;;;;;2.25;1.35;;;;;;;;;;8356911;28;20235;-63
2022/11/21 09:02:27;;;;;;;7.88;1.75;;;;;;;;;;8357533;28;20033;-63
2022/11/21 09:06:27;;;;;;;4.90;1.50;;;;;;;;;;8358295;28;20071;-62
2022/11/21 09:10:28;;;;;;;6.80;1.67;;;;;;;;;;8355887;28;20025;-62
2022/11/21 09:18:47;;;;;;;5.38;1.42;;;;;;;;;;8356020;28;20068;-63
2022/11/21 09:22:47;;;;;;;6.70;1.40;;;;;;;;;;8361245;28;20025;-62
2022/11/21 09:26:48;;;;;;;10.75;2.28;;;;;;;;;;8362054;28;20566;-63
2022/11/21 09:30:48;;;;;;;8.48;1.80;;;;;;;;;;8360461;28;20102;-63
2022/11/21 09:34:48;;;;;;;5.55;1.70;;;;;;;;;;8364035;28;20812;-63
2022/11/21 09:38:50;;;;;;;2.70;1.23;;;;;;;;;;8364217;28;20260;-63
2022/11/21 09:42:53;;;;;;;3.92;1.42;;;;;;;;;;8363795;28;20024;-63
2022/11/21 09:46:58;;;;;;;4.00;1.15;;;;;;;;;;8361801;28;20809;-63
2022/11/21 09:51:02;;;;;;;6.70;1.48;;;;;;;;;;8362141;28;20733;-62
2022/11/21 09:55:05;;;;;;;5.05;1.30;;;;;;;;;;8361394;28;20720;-62
2022/11/21 09:59:11;;;;;;;9.32;1.63;;;;;;;;;;8363769;28;20022;-62
2022/11/21 10:03:12;;;;;;;3.67;1.20;;;;;;;;;;8361549;28;20097;-62
2022/11/21 10:07:19;;;;;;;5.40;1.42;;;;;;;;;;8362360;28;20134;-62
2022/11/21 10:12:35;;;;;;;6.32;1.35;;;;;;;;;;8360873;28;20028;-62
2022/11/21 10:16:17;;;;;;;6.00;1.63;;;;;;;;;;8360510;28;20099;-62
2022/11/21 10:20:40;;;;;;;4.65;1.20;;;;;;;;;;8360100;28;20133;-63
2022/11/21 10:24:59;;;;;;;3.05;1.40;;;;;;;;;;8361121;28;20024;-62
2022/11/21 10:29:03;;;;;;;4.45;1.25;;;;;;;;;;8360064;28;20133;-62
2022/11/21 10:33:04;;;;;;;5.88;1.80;;;;;;;;;;8359895;28;20117;-62
2022/11/21 10:37:26;;;;;;;4.85;1.60;;;;;;;;;;8359407;28;20607;-62
2022/11/21 10:41:29;;;;;;;5.03;1.60;;;;;;;;;;8360157;28;20028;-62
2022/11/21 10:45:29;;;;;;;7.75;1.88;;;;;;;;;;8357801;28;20045;-62
2022/11/21 10:49:33;;;;;;;7.13;2.03;;;;;;;;;;8359075;28;20025;-63
2022/11/21 10:57:53;;;;;;;5.47;2.33;;;;;;;;;;8355774;28;20922;-63
2022/11/21 11:01:58;;;;;;;8.15;1.70;;;;;;;;;;8360066;28;20044;-63
2022/11/21 11:05:58;;;;;;;4.18;1.85;;;;;;;;;;8359756;28;20147;-63
2022/11/21 11:10:20;;;;;;;11.00;2.07;;;;;;;;;;8355496;28;20056;-63
2022/11/21 11:14:30;;;;;;;4.68;1.40;;;;;;;;;;8356429;28;20306;-63
2022/11/21 11:18:31;;;;;;;9.50;2.10;;;;;;;;;;8357268;28;20037;-63
2022/11/21 11:22:31;;;;;;;5.97;2.03;;;;;;;;;;8359820;28;20553;-63
2022/11/21 11:26:32;;;;;;;6.38;2.00;;;;;;;;;;8357225;28;20111;-62
2022/11/21 11:30:35;;;;;;;8.02;1.58;;;;;;;;;;8357775;28;20039;-64
2022/11/21 11:34:40;;;;;;;7.43;1.90;;;;;;;;;;8358394;28;20016;-63
2022/11/21 11:38:40;;;;;;;;;;;;;;;;;;8362069;28;20816;-62
2022/11/21 11:51:46;;;;;;;4.60;1.67;;;;;;;;;;8342997;28;20052;-62
2022/11/21 11:55:51;;;;;;;4.67;1.43;;;;;;;;;;8356378;28;20102;-62
2022/11/21 12:00:15;;;;;;;3.63;1.45;;;;;;;;;;8358579;28;20032;-62
2022/11/21 12:04:17;;;;;;;8.15;1.73;;;;;;;;;;8342666;28;20028;-62
2022/11/21 12:08:25;;;;;;;9.57;1.58;;;;;;;;;;8358335;28;20029;-62
2022/11/21 12:12:35;;;;;;;5.38;1.60;;;;;;;;;;8358800;28;20148;-61
2022/11/21 12:16:35;;;;;;;5.90;1.70;;;;;;;;;;8356401;28;20032;-62
2022/11/21 12:20:46;;;;;;;5.40;1.45;;;;;;;;;;8358928;28;20917;-63
2022/11/21 12:24:46;;;;;;;7.05;1.83;;;;;;;;;;8356957;28;20553;-62
2022/11/21 12:29:05;;;;;;;8.52;1.58;;;;;;;;;;8357323;28;20036;-63
2022/11/21 12:33:09;;;;;;;5.70;1.77;;;;;;;;;;8357495;28;20033;-62
2022/11/21 12:37:28;;;;;;;7.60;1.80;;;;;;;;;;8357994;28;20017;-62
2022/11/21 12:45:54;;;;;;;;;;;;;;;;;;8358148;28;20047;-62
2022/11/21 12:54:36;;;;;;;6.05;1.70;;;;;;;;;;8361510;28;20175;-63
2022/11/21 12:58:38;;;;;;;7.13;1.60;;;;;;;;;;8353958;28;20038;-62
2022/11/21 13:02:38;;;;;;;5.70;1.50;;;;;;;;;;8360780;28;20379;-62
2022/11/21 13:06:40;;;;;;;8.05;1.50;;;;;;;;;;8360282;28;20040;-62
2022/11/21 13:10:49;;;;;;;6.03;1.40;;;;;;;;;;8362525;28;20438;-62
2022/11/21 13:15:12;;;;;;;2.45;1.33;;;;;;;;;;8361904;28;20469;-62
2022/11/21 13:19:16;;;;;;;8.27;1.60;;;;;;;;;;8341029;28;20033;-63
2022/11/21 13:23:36;;;;;;;6.10;1.37;;;;;;;;;;8359738;28;20884;-63
2022/11/21 13:27:37;;;;;;;5.60;1.25;;;;;;;;;;8360028;28;20285;-64
2022/11/21 13:31:39;;;;;;;6.13;1.60;;;;;;;;;;8359522;28;20159;-63
2022/11/21 13:35:48;;;;;;;5.70;1.40;;;;;;;;;;8351579;28;20020;-62
2022/11/21 13:39:49;;;;;;;7.43;1.95;;;;;;;;;;8362585;28;20025;-62
2022/11/21 13:43:49;;;;;;;3.63;1.47;;;;;;;;;;8362223;28;20055;-62
2022/11/21 13:47:55;;;;;;;9.60;1.90;;;;;;;;;;8362199;28;20259;-63
2022/11/21 13:51:55;;;;;;;8.88;1.65;;;;;;;;;;8362220;28;20322;-62
2022/11/21 13:55:58;;;;;;;7.40;1.70;;;;;;;;;;8361611;28;20029;-63
2022/11/21 14:00:16;;;;;;;7.38;1.67;;;;;;;;;;8358305;28;20105;-63
2022/11/21 14:04:35;;;;;;;8.82;1.67;;;;;;;;;;8357988;28;20040;-63
2022/11/21 14:08:35;;;;;;;5.00;1.65;;;;;;;;;;8362134;28;20112;-62
2022/11/21 14:12:37;;;;;;;7.10;1.70;;;;;;;;;;8357028;28;20919;-62
2022/11/21 14:16:42;;;;;;;11.45;2.38;;;;;;;;;;8360272;28;20040;-64
2022/11/21 14:20:52;;;;;;;8.98;1.83;;;;;;;;;;8361226;28;20020;-63
2022/11/21 14:24:53;;;;;;;5.82;2.03;;;;;;;;;;8359885;28;20024;-62
2022/11/21 14:29:13;;;;;;;8.80;2.08;;;;;;;;;;8358176;28;20040;-62
2022/11/21 14:33:20;;;;;;;8.10;1.90;;;;;;;;;;8359571;28;20097;-63
2022/11/21 14:37:21;;;;;;;4.80;1.60;;;;;;;;;;8362271;28;20024;-62
2022/11/21 14:41:24;;;;;;;8.23;1.75;;;;;;;;;;8355392;28;20027;-63
2022/11/21 14:45:24;;;;;;;6.97;1.58;;;;;;;;;;8359901;28;20916;-62
2022/11/21 14:49:28;;;;;;;5.22;1.60;;;;;;;;;;8356129;28;20638;-62
2022/11/21 14:53:28;;;;;;;6.05;1.85;;;;;;;;;;8356478;28;20081;-63
2022/11/21 14:57:34;;;;;;;6.72;1.80;;;;;;;;;;8357245;28;20104;-62
2022/11/21 15:01:35;;;;;;;8.48;2.22;;;;;;;;;;8355428;28;20079;-62
2022/11/21 15:05:35;;;;;;;5.43;2.05;;;;;;;;;;8357883;28;20040;-67
2022/11/21 15:09:35;;;;;;;7.88;2.50;;;;;;;;;;8355440;28;20032;-64
2022/11/21 15:13:36;;;;;;;8.43;3.67;;;;;;;;;;8357004;28;20029;-63
2022/11/21 15:17:37;;;;;;;10.55;3.20;;;;;;;;;;8358309;28;20278;-63
2022/11/21 15:21:42;;;;;;;8.43;2.00;;;;;;;;;;8353178;28;20032;-63
2022/11/21 15:25:44;;;;;;;8.77;2.20;;;;;;;;;;8358555;28;20059;-63
2022/11/21 15:29:44;;;;;;;11.52;2.15;;;;;;;;;;8355062;28;20036;-63
2022/11/21 15:34:04;;;;;;;8.07;2.88;;;;;;;;;;8354296;28;20032;-63
2022/11/21 15:38:23;;;;;;;12.20;4.60;;;;;;;;;;8355761;28;20024;-64
2022/11/21 15:42:41;;;;;;;13.13;4.68;;;;;;;;;;8352030;28;20059;-63
2022/11/21 15:46:41;;;;;;;14.60;6.75;;;;;;;;;;8356436;28;20036;-63
2022/11/21 15:50:41;;;;;;;16.30;4.95;;;;;;;;;;8354420;28;20066;-63
2022/11/21 15:54:41;;;;;;;10.18;3.05;;;;;;;;;;8353863;28;20034;-63
2022/11/21 15:58:42;;;;;;;14.85;6.85;;;;;;;;;;8355089;28;20020;-63
2022/11/21 16:02:42;;;;;;;20.65;10.60;;;;;;;;;;8354885;28;20137;-63
2022/11/21 16:06:42;;;;;;;17.00;9.30;;;;;;;;;;8357155;28;20083;-63
2022/11/21 16:10:42;;;;;;;15.33;6.20;;;;;;;;;;8356591;28;20030;-63
2022/11/21 16:14:43;;;;;;;24.90;9.63;;;;;;;;;;8353837;28;20274;-65
2022/11/21 16:18:43;;;;;;;20.13;9.23;;;;;;;;;;8355715;28;20072;-66
2022/11/21 16:22:43;;;;;;;28.70;12.35;;;;;;;;;;8358012;28;20021;-63
2022/11/21 16:26:43;;;;;;;26.70;8.65;;;;;;;;;;8360102;28;20032;-63
2022/11/21 16:30:43;;;;;;;39.72;14.63;;;;;;;;;;8362211;28;20722;-63
2022/11/21 16:34:44;;;;;;;28.10;10.52;;;;;;;;;;8361247;28;20020;-63
2022/11/21 16:38:44;;;;;;;26.45;9.55;;;;;;;;;;8360950;28;20020;-63
2022/11/21 16:42:44;;;;;;;24.38;11.25;;;;;;;;;;8363008;28;20132;-63
2022/11/21 16:46:46;;;;;;;16.10;6.60;;;;;;;;;;8359554;28;20043;-63
2022/11/21 16:50:47;;;;;;;9.50;3.50;;;;;;;;;;8355611;28;20029;-63
2022/11/21 16:54:47;;;;;;;9.23;3.45;;;;;;;;;;8360981;28;20024;-63
2022/11/21 16:58:47;;;;;;;18.80;5.43;;;;;;;;;;8363710;28;20103;-63
2022/11/21 17:02:48;;;;;;;13.13;4.80;;;;;;;;;;8366062;28;20447;-63
2022/11/21 17:06:48;;;;;;;14.07;4.15;;;;;;;;;;8362423;28;20092;-63
2022/11/21 17:10:48;;;;;;;15.85;5.53;;;;;;;;;;8359491;28;20020;-63
2022/11/21 17:14:49;;;;;;;15.23;5.40;;;;;;;;;;8360254;28;20128;-63
2022/11/21 17:18:52;;;;;;;7.47;3.75;;;;;;;;;;8359639;28;20270;-63
2022/11/21 17:22:52;;;;;;;9.77;3.75;;;;;;;;;;8358613;28;20028;-64
2022/11/21 17:26:53;;;;;;;9.95;3.75;;;;;;;;;;8361834;28;20044;-64
2022/11/21 17:30:53;;;;;;;12.35;3.53;;;;;;;;;;8359231;28;20744;-63
2022/11/21 17:34:53;;;;;;;9.55;3.25;;;;;;;;;;8360743;28;20303;-63
2022/11/21 17:38:53;;;;;;;7.77;3.10;;;;;;;;;;8360113;28;20389;-63
2022/11/21 17:42:53;;;;;;;10.80;3.92;;;;;;;;;;8360101;28;20273;-63
2022/11/21 17:46:54;;;;;;;18.55;5.80;;;;;;;;;;8356987;28;20799;-63
2022/11/21 17:51:02;;;;;;;14.68;5.50;;;;;;;;;;8362011;28;20063;-64
2022/11/21 17:55:03;;;;;;;15.57;5.00;;;;;;;;;;8355007;28;20123;-64
2022/11/21 17:59:04;;;;;;;13.15;3.60;;;;;;;;;;8359076;28;20063;-63
2022/11/21 18:03:04;;;;;;;10.95;4.70;;;;;;;;;;8356477;28;20042;-63
2022/11/21 18:07:07;;;;;;;12.27;3.90;;;;;;;;;;8360274;28;20028;-63
2022/11/21 18:11:08;;;;;;;26.45;8.30;;;;;;;;;;8356228;28;20860;-64
2022/11/21 18:15:09;;;;;;;37.67;17.67;;;;;;;;;;8356853;28;20067;-63
2022/11/21 18:19:11;;;;;;;24.00;9.48;;;;;;;;;;8355421;28;20058;-64
2022/11/21 18:23:11;;;;;;;40.30;17.33;;;;;;;;;;8356589;28;20094;-66
2022/11/21 18:27:12;;;;;;;26.13;11.18;;;;;;;;;;8352396;28;20039;-63
2022/11/21 18:31:14;;;;;;;23.00;11.10;;;;;;;;;;8354632;28;20132;-63
2022/11/21 18:35:14;;;;;;;26.35;12.23;;;;;;;;;;8353745;28;20027;-64
2022/11/21 18:39:14;;;;;;;18.45;7.78;;;;;;;;;;8355731;28;20021;-63
2022/11/21 18:43:14;;;;;;;18.25;10.20;;;;;;;;;;8356978;28;20784;-63
2022/11/21 18:47:14;;;;;;;21.73;9.93;;;;;;;;;;8355048;28;20033;-63
2022/11/21 18:51:16;;;;;;;17.77;7.27;;;;;;;;;;8355856;28;20043;-64
2022/11/21 18:55:16;;;;;;;16.88;6.40;;;;;;;;;;8354012;28;20280;-63
2022/11/21 18:59:16;;;;;;;20.40;8.40;;;;;;;;;;8354698;28;20371;-64
2022/11/21 19:03:18;;;;;;;16.85;6.53;;;;;;;;;;8354126;28;20048;-63
2022/11/21 19:07:18;;;;;;;28.05;13.27;;;;;;;;;;8354878;28;20129;-63
2022/11/21 19:11:19;;;;;;;22.77;9.48;;;;;;;;;;8353255;28;20353;-63
2022/11/21 19:15:20;;;;;;;16.63;7.53;;;;;;;;;;8354069;28;20020;-64
2022/11/21 19:19:20;;;;;;;19.23;9.45;;;;;;;;;;8355930;28;20115;-63
2022/11/21 19:23:20;;;;;;;13.13;5.87;;;;;;;;;;8353960;28;20026;-63
2022/11/21 19:27:23;;;;;;;16.63;5.40;;;;;;;;;;8352619;28;20278;-64
2022/11/21 19:31:23;;;;;;;9.85;4.20;;;;;;;;;;8353099;28;20037;-64
2022/11/21 19:35:23;;;;;;;6.20;3.08;;;;;;;;;;8353239;28;20091;-63
2022/11/21 19:39:23;;;;;;;13.30;5.60;;;;;;;;;;8353677;28;20023;-64
2022/11/21 19:43:27;;;;;;;19.58;6.88;;;;;;;;;;8352777;28;20297;-63
2022/11/21 19:47:27;;;;;;;18.30;6.13;;;;;;;;;;8355395;28;20036;-63
2022/11/21 19:51:28;;;;;;;12.35;3.35;;;;;;;;;;8356999;28;20027;-63
2022/11/21 19:55:28;;;;;;;15.05;6.90;;;;;;;;;;8354207;28;20024;-63
2022/11/21 19:59:30;;;;;;;14.98;5.00;;;;;;;;;;8356244;28;20860;-63
2022/11/21 20:03:30;;;;;;;9.38;4.30;;;;;;;;;;8354010;28;20071;-64
2022/11/21 20:07:31;;;;;;;10.35;4.47;;;;;;;;;;8354228;28;20020;-63
2022/11/21 20:11:31;;;;;;;8.65;3.65;;;;;;;;;;8354539;28;20017;-63
2022/11/21 20:15:35;;;;;;;6.57;2.60;;;;;;;;;;8350125;28;20035;-63
2022/11/21 20:19:36;;;;;;;13.45;6.97;;;;;;;;;;8352614;28;20028;-63
2022/11/21 20:23:36;;;;;;;8.30;6.18;;;;;;;;;;8353937;28;20037;-63
2022/11/21 20:27:36;;;;;;;11.10;3.77;;;;;;;;;;8355700;28;20039;-63
2022/11/21 20:31:37;;;;;;;7.35;3.03;;;;;;;;;;8352445;28;20413;-63
2022/11/21 20:35:38;;;;;;;7.57;2.75;;;;;;;;;;8355247;28;20052;-64
2022/11/21 20:39:38;;;;;;;6.38;3.35;;;;;;;;;;8337494;28;20055;-63
2022/11/21 20:43:38;;;;;;;9.18;4.53;;;;;;;;;;8356120;28;20017;-64
2022/11/21 20:47:39;;;;;;;10.60;3.80;;;;;;;;;;8334164;28;20036;-64
2022/11/21 20:51:39;;;;;;;10.65;3.58;;;;;;;;;;8351943;28;20043;-63
2022/11/21 20:55:39;;;;;;;6.50;2.75;;;;;;;;;;8353493;28;20024;-63
2022/11/21 20:59:40;;;;;;;8.60;2.42;;;;;;;;;;8351671;28;20697;-64
2022/11/21 21:03:40;;;;;;;7.90;2.80;;;;;;;;;;8351013;28;20947;-63
2022/11/21 21:07:40;;;;;;;7.60;2.75;;;;;;;;;;8350575;28;20092;-63
2022/11/21 21:11:40;;;;;;;8.70;2.85;;;;;;;;;;8353827;28;20364;-63
2022/11/21 21:15:41;;;;;;;6.88;2.65;;;;;;;;;;8353139;28;20126;-63
2022/11/21 21:19:41;;;;;;;5.72;2.78;;;;;;;;;;8353300;28;20048;-64
2022/11/21 21:23:44;;;;;;;7.95;2.40;;;;;;;;;;8350205;28;20052;-63
2022/11/21 21:27:46;;;;;;;7.68;2.83;;;;;;;;;;8353869;28;20044;-64
2022/11/21 21:31:46;;;;;;;10.95;3.10;;;;;;;;;;8356222;28;20135;-64
2022/11/21 21:35:47;;;;;;;7.65;3.15;;;;;;;;;;8355106;28;20815;-63
2022/11/21 21:39:47;;;;;;;6.20;2.50;;;;;;;;;;8353276;28;20020;-63
2022/11/21 21:43:48;;;;;;;10.73;3.42;;;;;;;;;;8356080;28;20271;-64
2022/11/21 21:47:48;;;;;;;8.23;3.30;;;;;;;;;;8357567;28;20632;-63
2022/11/21 21:51:48;;;;;;;11.15;4.20;;;;;;;;;;8357156;28;20468;-64
2022/11/21 21:55:49;;;;;;;19.20;5.35;;;;;;;;;;8351908;28;21060;-64
2022/11/21 21:59:49;;;;;;;19.17;5.80;;;;;;;;;;8356322;28;20049;-64
2022/11/21 22:03:51;;;;;;;20.60;6.80;;;;;;;;;;8355475;28;20302;-64
2022/11/21 22:07:51;;;;;;;16.63;5.22;;;;;;;;;;8351057;28;20028;-64
2022/11/21 22:11:52;;;;;;;14.50;4.65;;;;;;;;;;8354361;28;20103;-64
2022/11/21 22:15:57;;;;;;;14.25;4.90;;;;;;;;;;8354704;28;20033;-64
2022/11/21 22:19:57;;;;;;;14.05;5.97;;;;;;;;;;8354988;28;20016;-63
2022/11/21 22:23:58;;;;;;;9.55;4.57;;;;;;;;;;8355654;28;20031;-63
2022/11/21 22:27:58;;;;;;;14.57;5.50;;;;;;;;;;8352365;28;20016;-65
2022/11/21 22:31:59;;;;;;;21.77;8.07;;;;;;;;;;8349069;28;20047;-64
2022/11/21 22:36:00;;;;;;;15.43;4.83;;;;;;;;;;8355375;28;20274;-63
2022/11/21 22:40:00;;;;;;;12.80;5.30;;;;;;;;;;8354613;28;21213;-64
2022/11/21 22:44:00;;;;;;;11.00;4.95;;;;;;;;;;8352490;28;20097;-64
2022/11/21 22:48:01;;;;;;;13.33;5.00;;;;;;;;;;8350119;28;20040;-63
2022/11/21 22:52:01;;;;;;;14.85;6.63;;;;;;;;;;8350826;28;20285;-64
2022/11/21 22:56:02;;;;;;;13.15;5.72;;;;;;;;;;8348825;28;20792;-63
2022/11/21 23:00:03;;;;;;;13.30;4.45;;;;;;;;;;8354258;28;20021;-64
2022/11/21 23:04:03;;;;;;;6.25;3.60;;;;;;;;;;8355468;28;20017;-64
2022/11/21 23:08:04;;;;;;;11.15;5.32;;;;;;;;;;8356543;28;20070;-63
2022/11/21 23:12:04;;;;;;;10.98;5.22;;;;;;;;;;8356427;28;20025;-64
2022/11/21 23:16:05;;;;;;;12.63;4.40;;;;;;;;;;8354777;28;20101;-64
2022/11/21 23:20:05;;;;;;;7.03;3.97;;;;;;;;;;8349269;28;21308;-63
2022/11/21 23:24:05;;;;;;;9.00;4.05;;;;;;;;;;8351554;28;20024;-63
2022/11/21 23:28:06;;;;;;;7.78;4.47;;;;;;;;;;8349649;28;20048;-64
2022/11/21 23:32:06;;;;;;;12.87;6.87;;;;;;;;;;8349338;28;20033;-64
2022/11/21 23:36:06;;;;;;;22.23;10.60;;;;;;;;;;8349703;28;21036;-63
2022/11/21 23:40:07;;;;;;;15.30;7.03;;;;;;;;;;8347830;28;20028;-64
2022/11/21 23:44:07;;;;;;;11.82;5.75;;;;;;;;;;8351857;28;20778;-64
2022/11/21 23:48:07;;;;;;;9.10;3.45;;;;;;;;;;8347412;28;20024;-64
2022/11/21 23:52:08;;;;;;;11.30;3.75;;;;;;;;;;8349926;28;20040;-64
2022/11/21 23:56:08;;;;;;;7.57;4.63;;;;;;;;;;8350350;28;20017;-64
